sensor_id;sensor_type;location;lat;lon;timestamp;P1;durP1;ratioP1;P2;durP2;ratioP2
54919;SDS011;63804;53.120;8.764;2023-09-19T00:02:06;5.85;;;2.40;;
54919;SDS011;63804;53.120;8.764;2023-09-19T00:04:35;7.40;;;2.80;;
54919;SDS011;63804;53.120;8.764;2023-09-19T00:07:07;5.82;;;2.55;;
54919;SDS011;63804;53.120;8.764;2023-09-19T00:09:36;7.85;;;2.55;;
54919;SDS011;63804;53.120;8.764;2023-09-19T00:12:06;6.32;;;2.30;;
54919;SDS011;63804;53.120;8.764;2023-09-19T00:14:36;7.57;;;2.53;;
54919;SDS011;63804;53.120;8.764;2023-09-19T00:17:04;6.78;;;2.53;;
54919;SDS011;63804;53.120;8.764;2023-09-19T00:19:35;7.63;;;2.58;;
54919;SDS011;63804;53.120;8.764;2023-09-19T00:22:03;8.70;;;2.85;;
54919;SDS011;63804;53.120;8.764;2023-09-19T00:24:31;8.63;;;2.70;;
54919;SDS011;63804;53.120;8.764;2023-09-19T00:26:59;8.52;;;2.80;;
54919;SDS011;63804;53.120;8.764;2023-09-19T00:29:26;4.60;;;2.67;;
54919;SDS011;63804;53.120;8.764;2023-09-19T00:31:58;5.55;;;2.40;;
54919;SDS011;63804;53.120;8.764;2023-09-19T00:34:26;6.90;;;2.78;;
54919;SDS011;63804;53.120;8.764;2023-09-19T00:36:55;6.80;;;2.63;;
54919;SDS011;63804;53.120;8.764;2023-09-19T00:39:22;6.15;;;2.10;;
54919;SDS011;63804;53.120;8.764;2023-09-19T00:41:52;5.97;;;2.33;;
54919;SDS011;63804;53.120;8.764;2023-09-19T00:44:20;7.97;;;2.63;;
54919;SDS011;63804;53.120;8.764;2023-09-19T00:46:50;5.47;;;1.95;;
54919;SDS011;63804;53.120;8.764;2023-09-19T00:49:20;9.20;;;2.30;;
54919;SDS011;63804;53.120;8.764;2023-09-19T00:51:49;8.05;;;2.33;;
54919;SDS011;63804;53.120;8.764;2023-09-19T00:54:17;6.30;;;2.42;;
54919;SDS011;63804;53.120;8.764;2023-09-19T00:56:45;7.10;;;2.33;;
54919;SDS011;63804;53.120;8.764;2023-09-19T00:59:13;8.10;;;2.30;;
54919;SDS011;63804;53.120;8.764;2023-09-19T01:01:41;6.10;;;2.30;;
54919;SDS011;63804;53.120;8.764;2023-09-19T01:04:09;4.78;;;1.98;;
54919;SDS011;63804;53.120;8.764;2023-09-19T01:06:37;9.70;;;1.90;;
54919;SDS011;63804;53.120;8.764;2023-09-19T01:09:06;8.90;;;1.92;;
54919;SDS011;63804;53.120;8.764;2023-09-19T01:11:40;7.10;;;2.10;;
54919;SDS011;63804;53.120;8.764;2023-09-19T01:14:15;7.03;;;2.03;;
54919;SDS011;63804;53.120;8.764;2023-09-19T01:22:16;6.18;;;2.05;;
54919;SDS011;63804;53.120;8.764;2023-09-19T01:30:43;7.82;;;2.20;;
54919;SDS011;63804;53.120;8.764;2023-09-19T01:33:11;5.55;;;1.88;;
54919;SDS011;63804;53.120;8.764;2023-09-19T01:35:38;5.32;;;1.70;;
54919;SDS011;63804;53.120;8.764;2023-09-19T01:38:06;6.22;;;1.83;;
54919;SDS011;63804;53.120;8.764;2023-09-19T01:40:41;6.78;;;1.70;;
54919;SDS011;63804;53.120;8.764;2023-09-19T01:43:17;6.35;;;1.77;;
54919;SDS011;63804;53.120;8.764;2023-09-19T01:51:40;3.53;;;1.10;;
54919;SDS011;63804;53.120;8.764;2023-09-19T01:54:16;3.83;;;1.17;;
54919;SDS011;63804;53.120;8.764;2023-09-19T01:56:53;4.38;;;1.20;;
54919;SDS011;63804;53.120;8.764;2023-09-19T01:59:35;3.47;;;1.02;;
54919;SDS011;63804;53.120;8.764;2023-09-19T02:02:08;3.58;;;1.20;;
54919;SDS011;63804;53.120;8.764;2023-09-19T02:04:36;5.10;;;1.20;;
54919;SDS011;63804;53.120;8.764;2023-09-19T02:07:03;3.30;;;1.17;;
54919;SDS011;63804;53.120;8.764;2023-09-19T02:09:32;4.13;;;1.20;;
54919;SDS011;63804;53.120;8.764;2023-09-19T02:12:02;3.40;;;1.05;;
54919;SDS011;63804;53.120;8.764;2023-09-19T02:14:31;2.50;;;1.02;;
54919;SDS011;63804;53.120;8.764;2023-09-19T02:16:59;2.67;;;1.52;;
54919;SDS011;63804;53.120;8.764;2023-09-19T02:19:27;4.70;;;1.20;;
54919;SDS011;63804;53.120;8.764;2023-09-19T02:21:55;4.75;;;1.40;;
54919;SDS011;63804;53.120;8.764;2023-09-19T02:24:22;6.00;;;1.48;;
54919;SDS011;63804;53.120;8.764;2023-09-19T02:26:53;3.78;;;1.10;;
54919;SDS011;63804;53.120;8.764;2023-09-19T02:29:21;3.53;;;1.05;;
54919;SDS011;63804;53.120;8.764;2023-09-19T02:31:49;4.80;;;1.20;;
54919;SDS011;63804;53.120;8.764;2023-09-19T02:34:17;4.88;;;1.30;;
54919;SDS011;63804;53.120;8.764;2023-09-19T02:36:44;4.10;;;1.40;;
54919;SDS011;63804;53.120;8.764;2023-09-19T02:39:13;4.95;;;1.30;;
54919;SDS011;63804;53.120;8.764;2023-09-19T02:41:40;7.50;;;1.38;;
54919;SDS011;63804;53.120;8.764;2023-09-19T02:44:08;5.35;;;1.48;;
54919;SDS011;63804;53.120;8.764;2023-09-19T02:46:36;6.10;;;1.50;;
54919;SDS011;63804;53.120;8.764;2023-09-19T02:49:04;5.28;;;1.67;;
54919;SDS011;63804;53.120;8.764;2023-09-19T02:51:34;4.13;;;1.45;;
54919;SDS011;63804;53.120;8.764;2023-09-19T02:54:01;7.50;;;1.40;;
54919;SDS011;63804;53.120;8.764;2023-09-19T02:56:32;5.68;;;1.38;;
54919;SDS011;63804;53.120;8.764;2023-09-19T02:58:59;5.30;;;1.67;;
54919;SDS011;63804;53.120;8.764;2023-09-19T03:01:27;7.50;;;1.65;;
54919;SDS011;63804;53.120;8.764;2023-09-19T03:03:55;6.70;;;1.60;;
54919;SDS011;63804;53.120;8.764;2023-09-19T03:06:23;4.20;;;1.23;;
54919;SDS011;63804;53.120;8.764;2023-09-19T03:08:51;6.93;;;1.80;;
54919;SDS011;63804;53.120;8.764;2023-09-19T03:11:19;7.97;;;1.90;;
54919;SDS011;63804;53.120;8.764;2023-09-19T03:13:51;5.53;;;2.00;;
54919;SDS011;63804;53.120;8.764;2023-09-19T03:16:21;5.32;;;2.00;;
54919;SDS011;63804;53.120;8.764;2023-09-19T03:18:49;8.23;;;1.80;;
54919;SDS011;63804;53.120;8.764;2023-09-19T03:21:16;9.13;;;1.90;;
54919;SDS011;63804;53.120;8.764;2023-09-19T03:23:46;5.70;;;1.80;;
54919;SDS011;63804;53.120;8.764;2023-09-19T03:26:14;6.95;;;1.60;;
54919;SDS011;63804;53.120;8.764;2023-09-19T03:28:43;6.57;;;1.80;;
54919;SDS011;63804;53.120;8.764;2023-09-19T03:31:13;6.70;;;1.80;;
54919;SDS011;63804;53.120;8.764;2023-09-19T03:33:40;7.45;;;1.73;;
54919;SDS011;63804;53.120;8.764;2023-09-19T03:36:09;6.05;;;1.70;;
54919;SDS011;63804;53.120;8.764;2023-09-19T03:38:36;6.45;;;1.65;;
54919;SDS011;63804;53.120;8.764;2023-09-19T03:41:04;8.40;;;2.00;;
54919;SDS011;63804;53.120;8.764;2023-09-19T03:43:32;6.45;;;1.60;;
54919;SDS011;63804;53.120;8.764;2023-09-19T03:46:02;8.75;;;1.85;;
54919;SDS011;63804;53.120;8.764;2023-09-19T03:48:34;9.07;;;2.22;;
54919;SDS011;63804;53.120;8.764;2023-09-19T03:51:02;6.15;;;1.65;;
54919;SDS011;63804;53.120;8.764;2023-09-19T03:53:29;6.32;;;1.70;;
54919;SDS011;63804;53.120;8.764;2023-09-19T03:55:57;11.55;;;2.00;;
54919;SDS011;63804;53.120;8.764;2023-09-19T03:58:25;5.50;;;1.85;;
54919;SDS011;63804;53.120;8.764;2023-09-19T04:00:56;6.90;;;1.75;;
54919;SDS011;63804;53.120;8.764;2023-09-19T04:03:25;6.47;;;2.00;;
54919;SDS011;63804;53.120;8.764;2023-09-19T04:06:02;8.13;;;2.00;;
54919;SDS011;63804;53.120;8.764;2023-09-19T04:08:29;8.18;;;2.13;;
54919;SDS011;63804;53.120;8.764;2023-09-19T04:10:57;10.75;;;2.00;;
54919;SDS011;63804;53.120;8.764;2023-09-19T04:13:25;6.10;;;1.85;;
54919;SDS011;63804;53.120;8.764;2023-09-19T04:15:53;10.10;;;1.92;;
54919;SDS011;63804;53.120;8.764;2023-09-19T04:20:34;8.15;;;2.00;;
54919;SDS011;63804;53.120;8.764;2023-09-19T04:23:01;8.63;;;2.13;;
54919;SDS011;63804;53.120;8.764;2023-09-19T04:25:29;9.13;;;1.95;;
54919;SDS011;63804;53.120;8.764;2023-09-19T04:27:57;9.82;;;2.08;;
54919;SDS011;63804;53.120;8.764;2023-09-19T04:30:25;10.68;;;2.28;;
54919;SDS011;63804;53.120;8.764;2023-09-19T04:32:52;9.95;;;2.53;;
54919;SDS011;63804;53.120;8.764;2023-09-19T04:35:20;10.35;;;2.30;;
54919;SDS011;63804;53.120;8.764;2023-09-19T04:37:48;7.50;;;1.80;;
54919;SDS011;63804;53.120;8.764;2023-09-19T04:40:17;9.52;;;2.05;;
54919;SDS011;63804;53.120;8.764;2023-09-19T04:42:52;10.85;;;2.22;;
54919;SDS011;63804;53.120;8.764;2023-09-19T04:45:27;8.00;;;1.92;;
54919;SDS011;63804;53.120;8.764;2023-09-19T04:47:55;7.97;;;1.98;;
54919;SDS011;63804;53.120;8.764;2023-09-19T04:50:23;10.30;;;2.05;;
54919;SDS011;63804;53.120;8.764;2023-09-19T04:52:53;11.10;;;2.35;;
54919;SDS011;63804;53.120;8.764;2023-09-19T04:55:21;10.05;;;2.20;;
54919;SDS011;63804;53.120;8.764;2023-09-19T04:57:49;12.40;;;2.30;;
54919;SDS011;63804;53.120;8.764;2023-09-19T05:00:21;10.57;;;2.53;;
54919;SDS011;63804;53.120;8.764;2023-09-19T05:02:52;7.35;;;2.10;;
54919;SDS011;63804;53.120;8.764;2023-09-19T05:05:22;8.15;;;2.25;;
54919;SDS011;63804;53.120;8.764;2023-09-19T05:07:51;8.90;;;2.45;;
54919;SDS011;63804;53.120;8.764;2023-09-19T05:10:20;11.35;;;2.25;;
54919;SDS011;63804;53.120;8.764;2023-09-19T05:12:48;10.98;;;2.60;;
54919;SDS011;63804;53.120;8.764;2023-09-19T05:15:19;9.52;;;2.45;;
54919;SDS011;63804;53.120;8.764;2023-09-19T05:17:47;10.38;;;2.42;;
54919;SDS011;63804;53.120;8.764;2023-09-19T05:20:21;13.57;;;3.30;;
54919;SDS011;63804;53.120;8.764;2023-09-19T05:22:58;10.32;;;2.40;;
54919;SDS011;63804;53.120;8.764;2023-09-19T05:25:31;8.80;;;2.50;;
54919;SDS011;63804;53.120;8.764;2023-09-19T05:27:59;10.23;;;2.40;;
54919;SDS011;63804;53.120;8.764;2023-09-19T05:30:31;11.32;;;2.53;;
54919;SDS011;63804;53.120;8.764;2023-09-19T05:32:59;14.70;;;2.40;;
54919;SDS011;63804;53.120;8.764;2023-09-19T05:35:27;13.27;;;2.65;;
54919;SDS011;63804;53.120;8.764;2023-09-19T05:37:55;10.80;;;2.83;;
54919;SDS011;63804;53.120;8.764;2023-09-19T05:40:23;8.93;;;2.45;;
54919;SDS011;63804;53.120;8.764;2023-09-19T05:42:52;7.28;;;2.50;;
54919;SDS011;63804;53.120;8.764;2023-09-19T05:45:19;8.48;;;3.05;;
54919;SDS011;63804;53.120;8.764;2023-09-19T05:47:50;13.35;;;2.95;;
54919;SDS011;63804;53.120;8.764;2023-09-19T05:50:18;10.65;;;2.60;;
54919;SDS011;63804;53.120;8.764;2023-09-19T05:52:53;10.52;;;2.75;;
54919;SDS011;63804;53.120;8.764;2023-09-19T05:55:21;10.05;;;2.42;;
54919;SDS011;63804;53.120;8.764;2023-09-19T05:57:52;11.52;;;2.50;;
54919;SDS011;63804;53.120;8.764;2023-09-19T06:00:20;11.52;;;2.55;;
54919;SDS011;63804;53.120;8.764;2023-09-19T06:02:53;9.25;;;2.25;;
54919;SDS011;63804;53.120;8.764;2023-09-19T06:05:21;10.40;;;2.47;;
54919;SDS011;63804;53.120;8.764;2023-09-19T06:07:49;14.85;;;3.10;;
54919;SDS011;63804;53.120;8.764;2023-09-19T06:10:19;9.85;;;2.95;;
54919;SDS011;63804;53.120;8.764;2023-09-19T06:12:51;14.32;;;2.50;;
54919;SDS011;63804;53.120;8.764;2023-09-19T06:15:18;12.30;;;2.45;;
54919;SDS011;63804;53.120;8.764;2023-09-19T06:17:47;9.32;;;2.30;;
54919;SDS011;63804;53.120;8.764;2023-09-19T06:20:16;8.50;;;2.75;;
54919;SDS011;63804;53.120;8.764;2023-09-19T06:22:45;11.18;;;2.42;;
54919;SDS011;63804;53.120;8.764;2023-09-19T06:25:13;11.57;;;2.97;;
54919;SDS011;63804;53.120;8.764;2023-09-19T06:27:51;9.38;;;2.83;;
54919;SDS011;63804;53.120;8.764;2023-09-19T06:30:21;10.77;;;2.75;;
54919;SDS011;63804;53.120;8.764;2023-09-19T06:32:58;9.98;;;2.65;;
54919;SDS011;63804;53.120;8.764;2023-09-19T06:35:27;7.65;;;2.28;;
54919;SDS011;63804;53.120;8.764;2023-09-19T06:37:56;11.70;;;2.75;;
54919;SDS011;63804;53.120;8.764;2023-09-19T06:40:25;11.13;;;2.80;;
54919;SDS011;63804;53.120;8.764;2023-09-19T06:42:55;12.52;;;2.88;;
54919;SDS011;63804;53.120;8.764;2023-09-19T06:45:23;11.63;;;2.88;;
54919;SDS011;63804;53.120;8.764;2023-09-19T07:04:22;11.02;;;2.72;;
54919;SDS011;63804;53.120;8.764;2023-09-19T07:06:49;12.98;;;2.80;;
54919;SDS011;63804;53.120;8.764;2023-09-19T07:09:17;13.85;;;3.13;;
54919;SDS011;63804;53.120;8.764;2023-09-19T07:11:46;11.05;;;2.35;;
54919;SDS011;63804;53.120;8.764;2023-09-19T07:14:15;10.70;;;2.63;;
54919;SDS011;63804;53.120;8.764;2023-09-19T07:16:42;12.93;;;3.13;;
54919;SDS011;63804;53.120;8.764;2023-09-19T07:19:11;12.57;;;2.90;;
54919;SDS011;63804;53.120;8.764;2023-09-19T07:21:39;11.25;;;2.55;;
54919;SDS011;63804;53.120;8.764;2023-09-19T07:24:06;9.05;;;2.30;;
54919;SDS011;63804;53.120;8.764;2023-09-19T07:26:35;8.88;;;2.28;;
54919;SDS011;63804;53.120;8.764;2023-09-19T07:29:02;13.23;;;2.85;;
54919;SDS011;63804;53.120;8.764;2023-09-19T07:31:31;10.40;;;2.15;;
54919;SDS011;63804;53.120;8.764;2023-09-19T07:33:58;9.75;;;2.17;;
54919;SDS011;63804;53.120;8.764;2023-09-19T07:36:26;12.70;;;2.63;;
54919;SDS011;63804;53.120;8.764;2023-09-19T07:38:53;10.65;;;2.60;;
54919;SDS011;63804;53.120;8.764;2023-09-19T07:41:32;9.82;;;2.38;;
54919;SDS011;63804;53.120;8.764;2023-09-19T07:44:01;9.95;;;2.50;;
54919;SDS011;63804;53.120;8.764;2023-09-19T07:46:28;12.38;;;2.50;;
54919;SDS011;63804;53.120;8.764;2023-09-19T07:48:58;10.02;;;2.50;;
54919;SDS011;63804;53.120;8.764;2023-09-19T07:51:25;10.63;;;2.47;;
54919;SDS011;63804;53.120;8.764;2023-09-19T07:53:54;10.23;;;2.50;;
54919;SDS011;63804;53.120;8.764;2023-09-19T07:56:22;8.95;;;2.53;;
54919;SDS011;63804;53.120;8.764;2023-09-19T07:58:50;9.68;;;2.83;;
54919;SDS011;63804;53.120;8.764;2023-09-19T08:01:17;9.68;;;2.47;;
54919;SDS011;63804;53.120;8.764;2023-09-19T08:03:45;10.88;;;3.20;;
54919;SDS011;63804;53.120;8.764;2023-09-19T08:06:12;12.43;;;2.75;;
54919;SDS011;63804;53.120;8.764;2023-09-19T08:08:40;13.25;;;2.55;;
54919;SDS011;63804;53.120;8.764;2023-09-19T08:11:08;13.52;;;2.65;;
54919;SDS011;63804;53.120;8.764;2023-09-19T08:13:39;8.93;;;2.17;;
54919;SDS011;63804;53.120;8.764;2023-09-19T08:16:16;8.43;;;1.92;;
54919;SDS011;63804;53.120;8.764;2023-09-19T08:18:48;11.10;;;2.30;;
54919;SDS011;63804;53.120;8.764;2023-09-19T08:21:22;11.25;;;2.53;;
54919;SDS011;63804;53.120;8.764;2023-09-19T08:23:51;11.73;;;2.33;;
54919;SDS011;63804;53.120;8.764;2023-09-19T08:26:19;10.77;;;2.15;;
54919;SDS011;63804;53.120;8.764;2023-09-19T08:28:47;11.88;;;2.28;;
54919;SDS011;63804;53.120;8.764;2023-09-19T08:31:15;9.35;;;2.05;;
54919;SDS011;63804;53.120;8.764;2023-09-19T08:33:43;8.20;;;2.28;;
54919;SDS011;63804;53.120;8.764;2023-09-19T08:36:16;9.18;;;2.33;;
54919;SDS011;63804;53.120;8.764;2023-09-19T08:38:43;10.15;;;2.15;;
54919;SDS011;63804;53.120;8.764;2023-09-19T08:41:11;15.05;;;2.45;;
54919;SDS011;63804;53.120;8.764;2023-09-19T08:43:39;10.07;;;2.22;;
54919;SDS011;63804;53.120;8.764;2023-09-19T08:48:39;10.20;;;2.33;;
54919;SDS011;63804;53.120;8.764;2023-09-19T08:51:33;13.15;;;2.47;;
54919;SDS011;63804;53.120;8.764;2023-09-19T08:54:28;9.75;;;2.10;;
54919;SDS011;63804;53.120;8.764;2023-09-19T08:57:00;8.65;;;2.28;;
54919;SDS011;63804;53.120;8.764;2023-09-19T08:59:35;11.38;;;2.20;;
54919;SDS011;63804;53.120;8.764;2023-09-19T09:02:09;10.45;;;2.35;;
54919;SDS011;63804;53.120;8.764;2023-09-19T09:04:42;10.88;;;2.40;;
54919;SDS011;63804;53.120;8.764;2023-09-19T09:07:11;10.10;;;2.00;;
54919;SDS011;63804;53.120;8.764;2023-09-19T09:09:40;8.77;;;2.00;;
54919;SDS011;63804;53.120;8.764;2023-09-19T09:12:14;7.70;;;2.03;;
54919;SDS011;63804;53.120;8.764;2023-09-19T09:14:46;14.27;;;2.80;;
54919;SDS011;63804;53.120;8.764;2023-09-19T09:17:17;11.10;;;2.33;;
54919;SDS011;63804;53.120;8.764;2023-09-19T09:19:47;10.13;;;2.40;;
54919;SDS011;63804;53.120;8.764;2023-09-19T09:22:15;11.30;;;1.95;;
54919;SDS011;63804;53.120;8.764;2023-09-19T09:27:31;10.63;;;2.40;;
54919;SDS011;63804;53.120;8.764;2023-09-19T09:29:59;8.98;;;2.20;;
54919;SDS011;63804;53.120;8.764;2023-09-19T09:32:28;10.32;;;2.33;;
54919;SDS011;63804;53.120;8.764;2023-09-19T09:34:59;7.63;;;2.10;;
54919;SDS011;63804;53.120;8.764;2023-09-19T09:37:28;7.50;;;2.13;;
54919;SDS011;63804;53.120;8.764;2023-09-19T09:40:01;8.63;;;1.80;;
54919;SDS011;63804;53.120;8.764;2023-09-19T09:42:56;9.57;;;2.28;;
54919;SDS011;63804;53.120;8.764;2023-09-19T09:45:26;9.82;;;1.90;;
54919;SDS011;63804;53.120;8.764;2023-09-19T09:48:05;8.52;;;1.85;;
54919;SDS011;63804;53.120;8.764;2023-09-19T09:50:48;6.85;;;1.90;;
54919;SDS011;63804;53.120;8.764;2023-09-19T09:53:19;7.47;;;2.03;;
54919;SDS011;63804;53.120;8.764;2023-09-19T09:56:07;12.07;;;2.35;;
54919;SDS011;63804;53.120;8.764;2023-09-19T09:58:37;8.65;;;1.98;;
54919;SDS011;63804;53.120;8.764;2023-09-19T10:01:07;7.60;;;2.10;;
54919;SDS011;63804;53.120;8.764;2023-09-19T10:03:42;9.60;;;2.03;;
54919;SDS011;63804;53.120;8.764;2023-09-19T10:06:17;10.43;;;2.38;;
54919;SDS011;63804;53.120;8.764;2023-09-19T10:09:06;7.95;;;1.92;;
54919;SDS011;63804;53.120;8.764;2023-09-19T10:11:44;8.20;;;2.05;;
54919;SDS011;63804;53.120;8.764;2023-09-19T10:14:15;11.27;;;2.10;;
54919;SDS011;63804;53.120;8.764;2023-09-19T10:16:46;7.28;;;1.95;;
54919;SDS011;63804;53.120;8.764;2023-09-19T10:19:18;11.70;;;2.33;;
54919;SDS011;63804;53.120;8.764;2023-09-19T10:21:53;9.90;;;2.22;;
54919;SDS011;63804;53.120;8.764;2023-09-19T10:24:23;8.60;;;2.05;;
54919;SDS011;63804;53.120;8.764;2023-09-19T10:26:53;12.85;;;2.60;;
54919;SDS011;63804;53.120;8.764;2023-09-19T10:29:22;13.18;;;2.58;;
54919;SDS011;63804;53.120;8.764;2023-09-19T10:31:53;7.85;;;2.20;;
54919;SDS011;63804;53.120;8.764;2023-09-19T10:34:22;8.10;;;2.15;;
54919;SDS011;63804;53.120;8.764;2023-09-19T10:36:52;8.32;;;2.38;;
54919;SDS011;63804;53.120;8.764;2023-09-19T10:39:21;10.52;;;2.53;;
54919;SDS011;63804;53.120;8.764;2023-09-19T10:41:51;11.57;;;2.50;;
54919;SDS011;63804;53.120;8.764;2023-09-19T10:46:52;9.25;;;2.35;;
54919;SDS011;63804;53.120;8.764;2023-09-19T10:49:21;10.38;;;2.60;;
54919;SDS011;63804;53.120;8.764;2023-09-19T10:51:50;10.18;;;2.72;;
54919;SDS011;63804;53.120;8.764;2023-09-19T10:54:23;10.65;;;2.17;;
54919;SDS011;63804;53.120;8.764;2023-09-19T10:56:54;10.32;;;2.53;;
54919;SDS011;63804;53.120;8.764;2023-09-19T10:59:24;11.43;;;2.60;;
54919;SDS011;63804;53.120;8.764;2023-09-19T11:01:53;12.60;;;2.75;;
54919;SDS011;63804;53.120;8.764;2023-09-19T11:07:03;10.27;;;2.40;;
54919;SDS011;63804;53.120;8.764;2023-09-19T11:14:58;8.73;;;2.50;;
54919;SDS011;63804;53.120;8.764;2023-09-19T11:17:32;9.35;;;2.45;;
54919;SDS011;63804;53.120;8.764;2023-09-19T11:30:47;11.25;;;2.67;;
54919;SDS011;63804;53.120;8.764;2023-09-19T11:33:28;9.77;;;2.40;;
54919;SDS011;63804;53.120;8.764;2023-09-19T11:36:13;9.88;;;2.28;;
54919;SDS011;63804;53.120;8.764;2023-09-19T11:49:18;7.80;;;2.38;;
54919;SDS011;63804;53.120;8.764;2023-09-19T11:51:53;6.60;;;1.77;;
54919;SDS011;63804;53.120;8.764;2023-09-19T11:54:22;8.32;;;2.67;;
54919;SDS011;63804;53.120;8.764;2023-09-19T11:56:52;11.45;;;2.22;;
54919;SDS011;63804;53.120;8.764;2023-09-19T11:59:21;9.45;;;2.25;;
54919;SDS011;63804;53.120;8.764;2023-09-19T12:01:50;8.02;;;2.00;;
54919;SDS011;63804;53.120;8.764;2023-09-19T12:04:41;8.07;;;2.30;;
54919;SDS011;63804;53.120;8.764;2023-09-19T12:07:11;8.45;;;2.45;;
54919;SDS011;63804;53.120;8.764;2023-09-19T12:09:44;10.32;;;3.08;;
54919;SDS011;63804;53.120;8.764;2023-09-19T12:14:47;11.63;;;2.90;;
54919;SDS011;63804;53.120;8.764;2023-09-19T12:17:16;9.68;;;2.47;;
54919;SDS011;63804;53.120;8.764;2023-09-19T12:19:55;10.23;;;2.67;;
54919;SDS011;63804;53.120;8.764;2023-09-19T12:22:23;10.48;;;2.50;;
54919;SDS011;63804;53.120;8.764;2023-09-19T12:24:52;8.60;;;2.30;;
54919;SDS011;63804;53.120;8.764;2023-09-19T12:27:21;8.48;;;2.40;;
54919;SDS011;63804;53.120;8.764;2023-09-19T12:29:49;10.20;;;2.40;;
54919;SDS011;63804;53.120;8.764;2023-09-19T12:32:17;11.73;;;2.85;;
54919;SDS011;63804;53.120;8.764;2023-09-19T12:34:50;9.70;;;2.35;;
54919;SDS011;63804;53.120;8.764;2023-09-19T12:37:20;8.07;;;2.42;;
54919;SDS011;63804;53.120;8.764;2023-09-19T12:39:49;11.57;;;2.83;;
54919;SDS011;63804;53.120;8.764;2023-09-19T12:42:20;9.25;;;2.33;;
54919;SDS011;63804;53.120;8.764;2023-09-19T12:44:52;10.90;;;2.45;;
54919;SDS011;63804;53.120;8.764;2023-09-19T12:47:24;11.40;;;2.45;;
54919;SDS011;63804;53.120;8.764;2023-09-19T12:50:04;6.70;;;2.00;;
54919;SDS011;63804;53.120;8.764;2023-09-19T12:52:39;12.43;;;2.72;;
54919;SDS011;63804;53.120;8.764;2023-09-19T12:55:19;10.25;;;2.63;;
54919;SDS011;63804;53.120;8.764;2023-09-19T13:00:38;11.63;;;2.78;;
54919;SDS011;63804;53.120;8.764;2023-09-19T13:05:47;7.47;;;1.90;;
54919;SDS011;63804;53.120;8.764;2023-09-19T13:08:26;8.20;;;2.30;;
54919;SDS011;63804;53.120;8.764;2023-09-19T13:15:57;12.02;;;2.83;;
54919;SDS011;63804;53.120;8.764;2023-09-19T13:18:25;12.57;;;2.30;;
54919;SDS011;63804;53.120;8.764;2023-09-19T13:21:06;9.00;;;2.47;;
54919;SDS011;63804;53.120;8.764;2023-09-19T13:23:50;15.45;;;2.97;;
54919;SDS011;63804;53.120;8.764;2023-09-19T13:26:26;10.43;;;2.60;;
54919;SDS011;63804;53.120;8.764;2023-09-19T13:28:55;11.60;;;2.70;;
54919;SDS011;63804;53.120;8.764;2023-09-19T13:31:22;11.55;;;2.45;;
54919;SDS011;63804;53.120;8.764;2023-09-19T13:33:51;14.30;;;2.50;;
54919;SDS011;63804;53.120;8.764;2023-09-19T13:36:19;8.57;;;2.20;;
54919;SDS011;63804;53.120;8.764;2023-09-19T13:38:46;11.07;;;2.33;;
54919;SDS011;63804;53.120;8.764;2023-09-19T13:41:16;8.93;;;2.10;;
54919;SDS011;63804;53.120;8.764;2023-09-19T13:43:43;8.73;;;2.67;;
54919;SDS011;63804;53.120;8.764;2023-09-19T13:46:15;11.23;;;2.70;;
54919;SDS011;63804;53.120;8.764;2023-09-19T13:48:45;9.80;;;2.58;;
54919;SDS011;63804;53.120;8.764;2023-09-19T13:51:12;9.93;;;2.35;;
54919;SDS011;63804;53.120;8.764;2023-09-19T13:53:39;5.72;;;1.77;;
54919;SDS011;63804;53.120;8.764;2023-09-19T13:56:07;9.13;;;2.30;;
54919;SDS011;63804;53.120;8.764;2023-09-19T13:58:35;9.13;;;2.30;;
54919;SDS011;63804;53.120;8.764;2023-09-19T14:01:03;11.88;;;2.05;;
54919;SDS011;63804;53.120;8.764;2023-09-19T14:03:30;10.23;;;2.22;;
54919;SDS011;63804;53.120;8.764;2023-09-19T14:05:58;8.80;;;2.13;;
54919;SDS011;63804;53.120;8.764;2023-09-19T14:08:26;9.25;;;2.28;;
54919;SDS011;63804;53.120;8.764;2023-09-19T14:10:54;9.05;;;2.15;;
54919;SDS011;63804;53.120;8.764;2023-09-19T14:13:21;12.27;;;2.80;;
54919;SDS011;63804;53.120;8.764;2023-09-19T14:15:49;10.30;;;2.30;;
54919;SDS011;63804;53.120;8.764;2023-09-19T14:18:16;11.07;;;2.25;;
54919;SDS011;63804;53.120;8.764;2023-09-19T14:20:45;10.30;;;2.28;;
54919;SDS011;63804;53.120;8.764;2023-09-19T14:23:13;8.73;;;2.15;;
54919;SDS011;63804;53.120;8.764;2023-09-19T14:25:41;9.68;;;2.20;;
54919;SDS011;63804;53.120;8.764;2023-09-19T14:28:09;8.93;;;2.30;;
54919;SDS011;63804;53.120;8.764;2023-09-19T14:30:36;11.23;;;2.58;;
54919;SDS011;63804;53.120;8.764;2023-09-19T14:33:04;10.25;;;2.50;;
54919;SDS011;63804;53.120;8.764;2023-09-19T14:35:33;8.65;;;2.50;;
54919;SDS011;63804;53.120;8.764;2023-09-19T14:38:00;10.02;;;2.03;;
54919;SDS011;63804;53.120;8.764;2023-09-19T14:40:28;8.35;;;2.20;;
54919;SDS011;63804;53.120;8.764;2023-09-19T14:42:55;9.13;;;2.42;;
54919;SDS011;63804;53.120;8.764;2023-09-19T14:45:23;9.20;;;2.58;;
54919;SDS011;63804;53.120;8.764;2023-09-19T14:47:52;9.82;;;3.05;;
54919;SDS011;63804;53.120;8.764;2023-09-19T14:50:23;6.68;;;2.00;;
54919;SDS011;63804;53.120;8.764;2023-09-19T14:52:51;9.85;;;2.58;;
54919;SDS011;63804;53.120;8.764;2023-09-19T14:55:19;7.93;;;2.38;;
54919;SDS011;63804;53.120;8.764;2023-09-19T14:57:48;8.63;;;2.13;;
54919;SDS011;63804;53.120;8.764;2023-09-19T15:00:18;10.10;;;2.35;;
54919;SDS011;63804;53.120;8.764;2023-09-19T15:02:48;10.13;;;2.35;;
54919;SDS011;63804;53.120;8.764;2023-09-19T15:05:17;12.13;;;3.05;;
54919;SDS011;63804;53.120;8.764;2023-09-19T15:07:46;9.30;;;2.25;;
54919;SDS011;63804;53.120;8.764;2023-09-19T15:10:14;9.45;;;2.35;;
54919;SDS011;63804;53.120;8.764;2023-09-19T15:12:41;9.20;;;2.53;;
54919;SDS011;63804;53.120;8.764;2023-09-19T15:15:09;9.50;;;3.08;;
54919;SDS011;63804;53.120;8.764;2023-09-19T15:17:37;8.05;;;2.60;;
54919;SDS011;63804;53.120;8.764;2023-09-19T15:20:05;10.55;;;2.60;;
54919;SDS011;63804;53.120;8.764;2023-09-19T15:22:34;12.38;;;2.70;;
54919;SDS011;63804;53.120;8.764;2023-09-19T15:25:02;12.52;;;3.35;;
54919;SDS011;63804;53.120;8.764;2023-09-19T15:27:31;10.90;;;2.30;;
54919;SDS011;63804;53.120;8.764;2023-09-19T15:30:00;13.10;;;2.22;;
54919;SDS011;63804;53.120;8.764;2023-09-19T15:32:32;8.07;;;1.83;;
54919;SDS011;63804;53.120;8.764;2023-09-19T15:34:59;10.43;;;2.08;;
54919;SDS011;63804;53.120;8.764;2023-09-19T15:37:28;11.45;;;1.83;;
54919;SDS011;63804;53.120;8.764;2023-09-19T15:39:55;9.52;;;2.00;;
54919;SDS011;63804;53.120;8.764;2023-09-19T15:42:23;6.60;;;2.40;;
54919;SDS011;63804;53.120;8.764;2023-09-19T15:44:50;10.02;;;2.33;;
54919;SDS011;63804;53.120;8.764;2023-09-19T15:47:18;9.05;;;2.30;;
54919;SDS011;63804;53.120;8.764;2023-09-19T15:49:47;11.30;;;3.33;;
54919;SDS011;63804;53.120;8.764;2023-09-19T15:52:17;12.32;;;2.65;;
54919;SDS011;63804;53.120;8.764;2023-09-19T15:54:44;9.02;;;2.10;;
54919;SDS011;63804;53.120;8.764;2023-09-19T15:57:12;6.38;;;1.83;;
54919;SDS011;63804;53.120;8.764;2023-09-19T15:59:40;7.57;;;2.20;;
54919;SDS011;63804;53.120;8.764;2023-09-19T16:02:08;10.68;;;2.30;;
54919;SDS011;63804;53.120;8.764;2023-09-19T16:04:35;5.97;;;1.60;;
54919;SDS011;63804;53.120;8.764;2023-09-19T16:07:05;10.13;;;1.92;;
54919;SDS011;63804;53.120;8.764;2023-09-19T16:09:33;8.27;;;1.98;;
54919;SDS011;63804;53.120;8.764;2023-09-19T16:12:02;9.68;;;2.05;;
54919;SDS011;63804;53.120;8.764;2023-09-19T16:14:30;9.75;;;2.25;;
54919;SDS011;63804;53.120;8.764;2023-09-19T16:16:58;7.90;;;2.10;;
54919;SDS011;63804;53.120;8.764;2023-09-19T16:19:27;11.00;;;2.35;;
54919;SDS011;63804;53.120;8.764;2023-09-19T16:21:55;10.23;;;2.17;;
54919;SDS011;63804;53.120;8.764;2023-09-19T16:24:22;11.07;;;1.80;;
54919;SDS011;63804;53.120;8.764;2023-09-19T16:26:51;7.47;;;1.80;;